sensor_id;sensor_type;location;lat;lon;timestamp;temperature;humidity
3770;DHT22;1900;48.890;9.190;2023-09-19T00:00:31;23.50;58.70
3770;DHT22;1900;48.890;9.190;2023-09-19T00:02:58;23.60;58.80
3770;DHT22;1900;48.890;9.190;2023-09-19T00:05:28;23.60;58.80
3770;DHT22;1900;48.890;9.190;2023-09-19T00:07:58;23.60;58.70
3770;DHT22;1900;48.890;9.190;2023-09-19T00:10:25;23.60;58.70
3770;DHT22;1900;48.890;9.190;2023-09-19T00:12:53;23.50;58.60
3770;DHT22;1900;48.890;9.190;2023-09-19T00:15:22;23.50;58.70
3770;DHT22;1900;48.890;9.190;2023-09-19T00:17:48;23.50;58.70
3770;DHT22;1900;48.890;9.190;2023-09-19T00:20:14;23.50;58.70
3770;DHT22;1900;48.890;9.190;2023-09-19T00:22:43;23.50;58.70
3770;DHT22;1900;48.890;9.190;2023-09-19T00:25:09;23.50;58.80
3770;DHT22;1900;48.890;9.190;2023-09-19T00:27:35;23.50;58.70
3770;DHT22;1900;48.890;9.190;2023-09-19T00:30:07;23.50;58.70
3770;DHT22;1900;48.890;9.190;2023-09-19T00:32:34;23.50;58.80
3770;DHT22;1900;48.890;9.190;2023-09-19T00:35:00;23.40;58.60
3770;DHT22;1900;48.890;9.190;2023-09-19T00:37:26;23.40;58.70
3770;DHT22;1900;48.890;9.190;2023-09-19T00:39:52;23.40;58.60
3770;DHT22;1900;48.890;9.190;2023-09-19T00:42:20;23.40;58.70
3770;DHT22;1900;48.890;9.190;2023-09-19T00:44:46;23.40;58.70
3770;DHT22;1900;48.890;9.190;2023-09-19T00:47:12;23.40;58.70
3770;DHT22;1900;48.890;9.190;2023-09-19T00:49:47;23.40;58.70
3770;DHT22;1900;48.890;9.190;2023-09-19T00:52:16;23.30;58.70
3770;DHT22;1900;48.890;9.190;2023-09-19T00:54:46;23.30;58.70
3770;DHT22;1900;48.890;9.190;2023-09-19T00:57:12;23.30;58.70
3770;DHT22;1900;48.890;9.190;2023-09-19T00:59:38;23.30;58.80
3770;DHT22;1900;48.890;9.190;2023-09-19T01:02:04;23.30;58.80
3770;DHT22;1900;48.890;9.190;2023-09-19T01:04:32;23.30;58.90
3770;DHT22;1900;48.890;9.190;2023-09-19T01:06:59;23.30;58.80
3770;DHT22;1900;48.890;9.190;2023-09-19T01:09:24;23.30;58.80
3770;DHT22;1900;48.890;9.190;2023-09-19T01:11:53;23.30;58.80
3770;DHT22;1900;48.890;9.190;2023-09-19T01:14:55;23.20;58.70
3770;DHT22;1900;48.890;9.190;2023-09-19T01:25:50;23.10;58.80
3770;DHT22;1900;48.890;9.190;2023-09-19T01:30:47;23.10;58.80
3770;DHT22;1900;48.890;9.190;2023-09-19T01:33:16;23.00;58.80
3770;DHT22;1900;48.890;9.190;2023-09-19T01:35:42;23.00;58.80
3770;DHT22;1900;48.890;9.190;2023-09-19T01:38:09;23.00;58.90
3770;DHT22;1900;48.890;9.190;2023-09-19T01:41:07;23.00;58.90
3770;DHT22;1900;48.890;9.190;2023-09-19T01:43:42;22.90;59.00
3770;DHT22;1900;48.890;9.190;2023-09-19T01:46:09;22.90;59.10
3770;DHT22;1900;48.890;9.190;2023-09-19T01:48:43;22.90;59.00
3770;DHT22;1900;48.890;9.190;2023-09-19T01:51:22;22.90;58.90
3770;DHT22;1900;48.890;9.190;2023-09-19T01:56:24;22.80;58.90
3770;DHT22;1900;48.890;9.190;2023-09-19T01:58:54;22.90;59.10
3770;DHT22;1900;48.890;9.190;2023-09-19T02:01:22;22.90;59.10
3770;DHT22;1900;48.890;9.190;2023-09-19T02:03:50;22.90;59.10
3770;DHT22;1900;48.890;9.190;2023-09-19T02:06:16;22.90;59.20
3770;DHT22;1900;48.890;9.190;2023-09-19T02:08:43;22.90;59.20
3770;DHT22;1900;48.890;9.190;2023-09-19T02:11:11;22.90;59.20
3770;DHT22;1900;48.890;9.190;2023-09-19T02:13:37;22.90;59.20
3770;DHT22;1900;48.890;9.190;2023-09-19T02:16:03;22.90;59.10
3770;DHT22;1900;48.890;9.190;2023-09-19T02:18:30;22.90;59.10
3770;DHT22;1900;48.890;9.190;2023-09-19T02:20:56;22.90;59.00
3770;DHT22;1900;48.890;9.190;2023-09-19T02:23:24;22.90;59.00
3770;DHT22;1900;48.890;9.190;2023-09-19T02:25:57;22.90;59.00
3770;DHT22;1900;48.890;9.190;2023-09-19T02:28:31;22.80;59.00
3770;DHT22;1900;48.890;9.190;2023-09-19T02:30:58;22.80;58.90
3770;DHT22;1900;48.890;9.190;2023-09-19T02:33:24;22.80;59.00
3770;DHT22;1900;48.890;9.190;2023-09-19T02:35:56;22.80;59.00
3770;DHT22;1900;48.890;9.190;2023-09-19T02:38:25;22.80;59.00
3770;DHT22;1900;48.890;9.190;2023-09-19T02:40:55;22.80;59.00
3770;DHT22;1900;48.890;9.190;2023-09-19T02:43:21;22.80;59.00
3770;DHT22;1900;48.890;9.190;2023-09-19T02:45:48;22.80;59.00
3770;DHT22;1900;48.890;9.190;2023-09-19T02:48:16;22.80;59.10
3770;DHT22;1900;48.890;9.190;2023-09-19T02:50:42;22.80;59.10
3770;DHT22;1900;48.890;9.190;2023-09-19T02:53:10;22.80;59.10
3770;DHT22;1900;48.890;9.190;2023-09-19T02:55:38;22.80;59.10
3770;DHT22;1900;48.890;9.190;2023-09-19T02:58:06;22.80;59.20
3770;DHT22;1900;48.890;9.190;2023-09-19T03:00:40;22.80;59.20
3770;DHT22;1900;48.890;9.190;2023-09-19T03:03:08;22.80;59.20
3770;DHT22;1900;48.890;9.190;2023-09-19T03:05:34;22.80;59.20
3770;DHT22;1900;48.890;9.190;2023-09-19T03:08:01;22.80;59.20
3770;DHT22;1900;48.890;9.190;2023-09-19T03:10:27;22.80;59.20
3770;DHT22;1900;48.890;9.190;2023-09-19T03:12:54;22.80;59.20
3770;DHT22;1900;48.890;9.190;2023-09-19T03:15:20;22.80;59.30
3770;DHT22;1900;48.890;9.190;2023-09-19T03:17:49;22.80;59.20
3770;DHT22;1900;48.890;9.190;2023-09-19T03:20:18;22.80;59.20
3770;DHT22;1900;48.890;9.190;2023-09-19T03:22:47;22.80;59.20
3770;DHT22;1900;48.890;9.190;2023-09-19T03:25:14;22.90;59.40
3770;DHT22;1900;48.890;9.190;2023-09-19T03:27:43;22.90;59.40
3770;DHT22;1900;48.890;9.190;2023-09-19T03:30:09;22.90;59.30
3770;DHT22;1900;48.890;9.190;2023-09-19T03:32:46;22.90;59.30
3770;DHT22;1900;48.890;9.190;2023-09-19T03:35:13;22.90;59.50
3770;DHT22;1900;48.890;9.190;2023-09-19T03:37:43;22.90;59.40
3770;DHT22;1900;48.890;9.190;2023-09-19T03:40:10;22.90;59.40
3770;DHT22;1900;48.890;9.190;2023-09-19T03:42:41;22.80;59.30
3770;DHT22;1900;48.890;9.190;2023-09-19T03:45:09;22.90;59.40
3770;DHT22;1900;48.890;9.190;2023-09-19T03:47:40;22.80;59.20
3770;DHT22;1900;48.890;9.190;2023-09-19T03:50:07;22.80;59.30
3770;DHT22;1900;48.890;9.190;2023-09-19T03:52:36;22.80;59.30
3770;DHT22;1900;48.890;9.190;2023-09-19T03:55:02;22.80;59.30
3770;DHT22;1900;48.890;9.190;2023-09-19T03:57:30;22.80;59.30
3770;DHT22;1900;48.890;9.190;2023-09-19T03:59:55;22.80;59.90
3770;DHT22;1900;48.890;9.190;2023-09-19T04:02:21;22.70;59.20
3770;DHT22;1900;48.890;9.190;2023-09-19T04:04:50;22.70;59.30
3770;DHT22;1900;48.890;9.190;2023-09-19T04:07:15;22.70;59.30
3770;DHT22;1900;48.890;9.190;2023-09-19T04:09:41;22.60;59.20
3770;DHT22;1900;48.890;9.190;2023-09-19T04:12:07;22.60;59.30
3770;DHT22;1900;48.890;9.190;2023-09-19T04:14:36;22.60;59.30
3770;DHT22;1900;48.890;9.190;2023-09-19T04:17:01;22.60;59.30
3770;DHT22;1900;48.890;9.190;2023-09-19T04:19:27;22.60;59.40
3770;DHT22;1900;48.890;9.190;2023-09-19T04:21:54;22.60;59.40
3770;DHT22;1900;48.890;9.190;2023-09-19T04:24:19;22.60;59.40
3770;DHT22;1900;48.890;9.190;2023-09-19T04:26:45;22.60;59.50
3770;DHT22;1900;48.890;9.190;2023-09-19T04:29:11;22.60;59.60
3770;DHT22;1900;48.890;9.190;2023-09-19T04:31:39;22.60;59.70
3770;DHT22;1900;48.890;9.190;2023-09-19T04:34:09;22.60;59.70
3770;DHT22;1900;48.890;9.190;2023-09-19T04:36:35;22.60;59.70
3770;DHT22;1900;48.890;9.190;2023-09-19T04:39:03;22.60;59.80
3770;DHT22;1900;48.890;9.190;2023-09-19T04:41:30;22.60;59.80
3770;DHT22;1900;48.890;9.190;2023-09-19T04:43:56;22.60;59.80
3770;DHT22;1900;48.890;9.190;2023-09-19T04:46:22;22.60;59.90
3770;DHT22;1900;48.890;9.190;2023-09-19T04:48:47;22.70;59.90
3770;DHT22;1900;48.890;9.190;2023-09-19T04:51:13;22.70;60.00
3770;DHT22;1900;48.890;9.190;2023-09-19T04:53:40;22.70;60.00
3770;DHT22;1900;48.890;9.190;2023-09-19T04:56:06;22.70;59.90
3770;DHT22;1900;48.890;9.190;2023-09-19T04:58:33;22.70;60.00
3770;DHT22;1900;48.890;9.190;2023-09-19T05:00:59;22.70;60.00
3770;DHT22;1900;48.890;9.190;2023-09-19T05:03:25;22.70;60.00
3770;DHT22;1900;48.890;9.190;2023-09-19T05:05:50;22.70;60.00
3770;DHT22;1900;48.890;9.190;2023-09-19T05:08:16;22.80;60.80
3770;DHT22;1900;48.890;9.190;2023-09-19T05:10:42;22.80;60.10
3770;DHT22;1900;48.890;9.190;2023-09-19T05:13:07;22.80;60.20
3770;DHT22;1900;48.890;9.190;2023-09-19T05:15:33;22.70;60.00
3770;DHT22;1900;48.890;9.190;2023-09-19T05:18:01;22.80;60.10
3770;DHT22;1900;48.890;9.190;2023-09-19T05:20:27;22.80;60.20
3770;DHT22;1900;48.890;9.190;2023-09-19T05:23:04;22.80;60.30
3770;DHT22;1900;48.890;9.190;2023-09-19T05:25:33;22.80;60.30
3770;DHT22;1900;48.890;9.190;2023-09-19T05:28:02;22.70;60.20
3770;DHT22;1900;48.890;9.190;2023-09-19T05:30:29;22.70;60.30
3770;DHT22;1900;48.890;9.190;2023-09-19T05:32:55;22.80;60.50
3770;DHT22;1900;48.890;9.190;2023-09-19T05:35:22;22.70;60.30
3770;DHT22;1900;48.890;9.190;2023-09-19T05:37:51;22.70;60.30
3770;DHT22;1900;48.890;9.190;2023-09-19T05:40:18;22.70;60.30
3770;DHT22;1900;48.890;9.190;2023-09-19T05:42:44;22.70;60.30
3770;DHT22;1900;48.890;9.190;2023-09-19T05:45:10;22.70;60.30
3770;DHT22;1900;48.890;9.190;2023-09-19T05:47:43;22.70;60.20
3770;DHT22;1900;48.890;9.190;2023-09-19T05:50:11;22.70;60.30
3770;DHT22;1900;48.890;9.190;2023-09-19T05:52:37;22.70;60.30
3770;DHT22;1900;48.890;9.190;2023-09-19T05:55:04;22.70;60.30
3770;DHT22;1900;48.890;9.190;2023-09-19T05:57:32;22.70;60.30
3770;DHT22;1900;48.890;9.190;2023-09-19T05:59:58;22.70;60.30
3770;DHT22;1900;48.890;9.190;2023-09-19T06:02:24;22.60;60.30
3770;DHT22;1900;48.890;9.190;2023-09-19T06:04:51;22.60;60.20
3770;DHT22;1900;48.890;9.190;2023-09-19T06:07:18;22.70;60.40
3770;DHT22;1900;48.890;9.190;2023-09-19T06:09:44;22.60;60.40
3770;DHT22;1900;48.890;9.190;2023-09-19T06:12:09;22.60;60.20
3770;DHT22;1900;48.890;9.190;2023-09-19T06:14:39;22.60;60.10
3770;DHT22;1900;48.890;9.190;2023-09-19T06:17:06;22.50;60.00
3770;DHT22;1900;48.890;9.190;2023-09-19T06:19:32;22.50;60.00
3770;DHT22;1900;48.890;9.190;2023-09-19T06:21:58;22.50;60.00
3770;DHT22;1900;48.890;9.190;2023-09-19T06:24:25;22.50;60.00
3770;DHT22;1900;48.890;9.190;2023-09-19T06:26:51;22.50;60.00
3770;DHT22;1900;48.890;9.190;2023-09-19T06:29:18;22.40;60.00
3770;DHT22;1900;48.890;9.190;2023-09-19T06:31:46;22.40;60.00
3770;DHT22;1900;48.890;9.190;2023-09-19T06:34:12;22.40;60.10
3770;DHT22;1900;48.890;9.190;2023-09-19T06:36:41;22.40;60.20
3770;DHT22;1900;48.890;9.190;2023-09-19T06:39:07;22.40;60.20
3770;DHT22;1900;48.890;9.190;2023-09-19T06:41:37;22.40;60.20
3770;DHT22;1900;48.890;9.190;2023-09-19T06:44:10;22.40;60.30
3770;DHT22;1900;48.890;9.190;2023-09-19T06:46:35;22.40;60.30
3770;DHT22;1900;48.890;9.190;2023-09-19T06:49:04;22.40;60.30
3770;DHT22;1900;48.890;9.190;2023-09-19T06:51:32;22.40;60.30
3770;DHT22;1900;48.890;9.190;2023-09-19T06:53:58;22.40;60.30
3770;DHT22;1900;48.890;9.190;2023-09-19T06:56:24;22.40;60.30
3770;DHT22;1900;48.890;9.190;2023-09-19T06:58:50;22.40;60.30
3770;DHT22;1900;48.890;9.190;2023-09-19T07:01:15;22.40;60.30
3770;DHT22;1900;48.890;9.190;2023-09-19T07:03:41;22.50;60.60
3770;DHT22;1900;48.890;9.190;2023-09-19T07:06:07;22.40;60.50
3770;DHT22;1900;48.890;9.190;2023-09-19T07:08:34;22.50;60.60
3770;DHT22;1900;48.890;9.190;2023-09-19T07:11:00;22.50;60.60
3770;DHT22;1900;48.890;9.190;2023-09-19T07:13:25;22.50;60.60
3770;DHT22;1900;48.890;9.190;2023-09-19T07:15:51;22.50;60.80
3770;DHT22;1900;48.890;9.190;2023-09-19T07:18:17;22.60;61.00
3770;DHT22;1900;48.890;9.190;2023-09-19T07:20:46;22.60;61.10
3770;DHT22;1900;48.890;9.190;2023-09-19T07:23:19;22.60;61.10
3770;DHT22;1900;48.890;9.190;2023-09-19T07:25:47;22.70;61.30
3770;DHT22;1900;48.890;9.190;2023-09-19T07:28:14;22.70;61.40
3770;DHT22;1900;48.890;9.190;2023-09-19T07:30:40;22.80;61.50
3770;DHT22;1900;48.890;9.190;2023-09-19T07:33:09;22.80;61.50
3770;DHT22;1900;48.890;9.190;2023-09-19T07:35:38;22.90;61.60
3770;DHT22;1900;48.890;9.190;2023-09-19T07:38:06;22.90;61.70
3770;DHT22;1900;48.890;9.190;2023-09-19T07:40:32;23.00;61.80
3770;DHT22;1900;48.890;9.190;2023-09-19T07:42:58;23.10;62.00
3770;DHT22;1900;48.890;9.190;2023-09-19T07:45:30;23.10;62.10
3770;DHT22;1900;48.890;9.190;2023-09-19T07:47:59;23.20;62.20
3770;DHT22;1900;48.890;9.190;2023-09-19T07:50:39;23.30;62.20
3770;DHT22;1900;48.890;9.190;2023-09-19T07:53:05;23.30;62.20
3770;DHT22;1900;48.890;9.190;2023-09-19T07:55:31;23.40;62.20
3770;DHT22;1900;48.890;9.190;2023-09-19T07:57:59;23.40;62.90
3770;DHT22;1900;48.890;9.190;2023-09-19T08:00:25;23.50;62.20
3770;DHT22;1900;48.890;9.190;2023-09-19T08:02:50;23.50;62.20
3770;DHT22;1900;48.890;9.190;2023-09-19T08:05:17;23.60;62.30
3770;DHT22;1900;48.890;9.190;2023-09-19T08:07:45;23.60;62.10
3770;DHT22;1900;48.890;9.190;2023-09-19T08:10:20;23.60;62.10
3770;DHT22;1900;48.890;9.190;2023-09-19T08:12:47;23.70;62.10
3770;DHT22;1900;48.890;9.190;2023-09-19T08:15:18;23.70;62.40
3770;DHT22;1900;48.890;9.190;2023-09-19T08:17:45;23.80;62.50
3770;DHT22;1900;48.890;9.190;2023-09-19T08:20:11;23.80;62.70
3770;DHT22;1900;48.890;9.190;2023-09-19T08:22:50;23.90;62.80
3770;DHT22;1900;48.890;9.190;2023-09-19T08:25:23;24.00;63.00
3770;DHT22;1900;48.890;9.190;2023-09-19T08:27:50;24.10;63.20
3770;DHT22;1900;48.890;9.190;2023-09-19T08:30:18;24.20;63.30
3770;DHT22;1900;48.890;9.190;2023-09-19T08:32:43;24.20;63.20
3770;DHT22;1900;48.890;9.190;2023-09-19T08:35:10;24.40;63.40
3770;DHT22;1900;48.890;9.190;2023-09-19T08:37:36;24.40;63.20
3770;DHT22;1900;48.890;9.190;2023-09-19T08:40:02;24.50;63.20
3770;DHT22;1900;48.890;9.190;2023-09-19T08:42:28;24.60;63.50
3770;DHT22;1900;48.890;9.190;2023-09-19T08:44:55;24.70;63.60
3770;DHT22;1900;48.890;9.190;2023-09-19T08:47:34;24.70;63.40
3770;DHT22;1900;48.890;9.190;2023-09-19T08:50:11;24.80;63.30
3770;DHT22;1900;48.890;9.190;2023-09-19T08:52:43;24.80;63.20
3770;DHT22;1900;48.890;9.190;2023-09-19T08:55:13;24.90;63.30
3770;DHT22;1900;48.890;9.190;2023-09-19T08:57:46;25.00;63.40
3770;DHT22;1900;48.890;9.190;2023-09-19T09:00:15;25.00;63.40
3770;DHT22;1900;48.890;9.190;2023-09-19T09:02:44;25.10;63.30
3770;DHT22;1900;48.890;9.190;2023-09-19T09:05:11;25.10;63.20
3770;DHT22;1900;48.890;9.190;2023-09-19T09:07:40;25.20;63.30
3770;DHT22;1900;48.890;9.190;2023-09-19T09:10:07;25.30;63.30
3770;DHT22;1900;48.890;9.190;2023-09-19T09:12:34;25.30;63.30
3770;DHT22;1900;48.890;9.190;2023-09-19T09:15:03;25.40;63.30
3770;DHT22;1900;48.890;9.190;2023-09-19T09:17:30;25.50;63.20
3770;DHT22;1900;48.890;9.190;2023-09-19T09:19:56;25.50;63.10
3770;DHT22;1900;48.890;9.190;2023-09-19T09:22:22;25.60;63.00
3770;DHT22;1900;48.890;9.190;2023-09-19T09:27:19;25.70;62.90
3770;DHT22;1900;48.890;9.190;2023-09-19T09:29:47;25.70;62.90
3770;DHT22;1900;48.890;9.190;2023-09-19T09:32:27;25.80;62.70
3770;DHT22;1900;48.890;9.190;2023-09-19T09:34:57;25.80;62.40
3770;DHT22;1900;48.890;9.190;2023-09-19T09:37:24;25.80;62.40
3770;DHT22;1900;48.890;9.190;2023-09-19T09:39:59;25.80;62.30
3770;DHT22;1900;48.890;9.190;2023-09-19T09:42:43;25.90;62.20
3770;DHT22;1900;48.890;9.190;2023-09-19T09:47:45;26.00;62.50
3770;DHT22;1900;48.890;9.190;2023-09-19T09:50:24;26.00;62.40
3770;DHT22;1900;48.890;9.190;2023-09-19T09:52:57;26.10;62.50
3770;DHT22;1900;48.890;9.190;2023-09-19T09:58:26;26.20;62.30
3770;DHT22;1900;48.890;9.190;2023-09-19T10:00:59;26.20;62.40
3770;DHT22;1900;48.890;9.190;2023-09-19T10:03:38;26.30;62.30
3770;DHT22;1900;48.890;9.190;2023-09-19T10:06:13;26.40;62.20
3770;DHT22;1900;48.890;9.190;2023-09-19T10:09:07;26.40;62.20
3770;DHT22;1900;48.890;9.190;2023-09-19T10:11:43;26.50;62.10
3770;DHT22;1900;48.890;9.190;2023-09-19T10:14:11;26.50;62.10
3770;DHT22;1900;48.890;9.190;2023-09-19T10:16:45;26.60;62.00
3770;DHT22;1900;48.890;9.190;2023-09-19T10:19:23;26.60;61.90
3770;DHT22;1900;48.890;9.190;2023-09-19T10:21:50;26.70;62.10
3770;DHT22;1900;48.890;9.190;2023-09-19T10:24:17;26.70;62.00
3770;DHT22;1900;48.890;9.190;2023-09-19T10:26:45;26.80;61.80
3770;DHT22;1900;48.890;9.190;2023-09-19T10:29:13;26.80;61.80
3770;DHT22;1900;48.890;9.190;2023-09-19T10:31:42;26.90;61.60
3770;DHT22;1900;48.890;9.190;2023-09-19T10:34:16;27.00;61.70
3770;DHT22;1900;48.890;9.190;2023-09-19T10:36:44;27.00;61.80
3770;DHT22;1900;48.890;9.190;2023-09-19T10:39:13;27.10;61.80
3770;DHT22;1900;48.890;9.190;2023-09-19T10:41:40;27.10;61.70
3770;DHT22;1900;48.890;9.190;2023-09-19T10:44:06;27.20;61.80
3770;DHT22;1900;48.890;9.190;2023-09-19T10:46:32;27.20;61.60
3770;DHT22;1900;48.890;9.190;2023-09-19T10:49:02;27.30;61.90
3770;DHT22;1900;48.890;9.190;2023-09-19T10:51:38;27.30;61.50
3770;DHT22;1900;48.890;9.190;2023-09-19T10:54:08;27.40;61.50
3770;DHT22;1900;48.890;9.190;2023-09-19T10:56:42;27.40;61.50
3770;DHT22;1900;48.890;9.190;2023-09-19T10:59:15;27.50;61.50
3770;DHT22;1900;48.890;9.190;2023-09-19T11:01:46;27.50;61.40
3770;DHT22;1900;48.890;9.190;2023-09-19T11:04:34;27.60;61.60
3770;DHT22;1900;48.890;9.190;2023-09-19T11:07:01;27.70;61.00
3770;DHT22;1900;48.890;9.190;2023-09-19T11:12:12;27.70;60.70
3770;DHT22;1900;48.890;9.190;2023-09-19T11:14:39;27.60;60.90
3770;DHT22;1900;48.890;9.190;2023-09-19T11:30:35;27.40;59.00
3770;DHT22;1900;48.890;9.190;2023-09-19T11:33:24;27.40;59.20
3770;DHT22;1900;48.890;9.190;2023-09-19T11:46:55;27.60;60.20
3770;DHT22;1900;48.890;9.190;2023-09-19T11:49:28;27.60;60.30
3770;DHT22;1900;48.890;9.190;2023-09-19T11:51:56;27.70;60.70
3770;DHT22;1900;48.890;9.190;2023-09-19T11:54:22;27.80;61.00
3770;DHT22;1900;48.890;9.190;2023-09-19T11:56:49;27.90;60.70
3770;DHT22;1900;48.890;9.190;2023-09-19T11:59:28;28.00;61.00
3770;DHT22;1900;48.890;9.190;2023-09-19T12:02:05;28.10;61.20
3770;DHT22;1900;48.890;9.190;2023-09-19T12:04:39;28.20;61.00
3770;DHT22;1900;48.890;9.190;2023-09-19T12:07:10;28.40;61.50
3770;DHT22;1900;48.890;9.190;2023-09-19T12:09:50;28.50;61.70
3770;DHT22;1900;48.890;9.190;2023-09-19T12:12:26;28.60;61.10
3770;DHT22;1900;48.890;9.190;2023-09-19T12:15:01;28.70;60.80
3770;DHT22;1900;48.890;9.190;2023-09-19T12:17:39;28.80;61.00
3770;DHT22;1900;48.890;9.190;2023-09-19T12:20:07;28.90;60.60
3770;DHT22;1900;48.890;9.190;2023-09-19T12:22:43;29.00;61.20
3770;DHT22;1900;48.890;9.190;2023-09-19T12:25:10;29.20;61.30
3770;DHT22;1900;48.890;9.190;2023-09-19T12:27:47;29.20;61.40
3770;DHT22;1900;48.890;9.190;2023-09-19T12:30:16;29.40;61.40
3770;DHT22;1900;48.890;9.190;2023-09-19T12:32:46;29.60;61.20
3770;DHT22;1900;48.890;9.190;2023-09-19T12:35:31;29.70;61.20
3770;DHT22;1900;48.890;9.190;2023-09-19T12:38:00;29.80;61.00
3770;DHT22;1900;48.890;9.190;2023-09-19T12:40:26;30.00;61.50
3770;DHT22;1900;48.890;9.190;2023-09-19T12:42:59;30.10;61.10
3770;DHT22;1900;48.890;9.190;2023-09-19T12:45:25;30.30;61.40
3770;DHT22;1900;48.890;9.190;2023-09-19T12:48:23;30.40;61.50
3770;DHT22;1900;48.890;9.190;2023-09-19T12:51:08;30.60;61.00
3770;DHT22;1900;48.890;9.190;2023-09-19T12:53:44;30.80;60.90
3770;DHT22;1900;48.890;9.190;2023-09-19T12:56:13;30.80;60.70
3770;DHT22;1900;48.890;9.190;2023-09-19T12:58:53;31.00;60.50
3770;DHT22;1900;48.890;9.190;2023-09-19T13:01:20;31.10;60.40
3770;DHT22;1900;48.890;9.190;2023-09-19T13:03:46;31.20;60.60
3770;DHT22;1900;48.890;9.190;2023-09-19T13:06:11;31.30;60.50
3770;DHT22;1900;48.890;9.190;2023-09-19T13:08:39;31.50;60.60
3770;DHT22;1900;48.890;9.190;2023-09-19T13:13:41;31.70;60.40
3770;DHT22;1900;48.890;9.190;2023-09-19T13:16:07;31.90;60.20
3770;DHT22;1900;48.890;9.190;2023-09-19T13:18:45;32.00;60.40
3770;DHT22;1900;48.890;9.190;2023-09-19T13:21:14;32.20;60.00
3770;DHT22;1900;48.890;9.190;2023-09-19T13:23:53;32.30;59.80
3770;DHT22;1900;48.890;9.190;2023-09-19T13:26:25;32.40;59.60
3770;DHT22;1900;48.890;9.190;2023-09-19T13:28:51;32.60;59.90
3770;DHT22;1900;48.890;9.190;2023-09-19T13:31:17;32.70;59.80
3770;DHT22;1900;48.890;9.190;2023-09-19T13:33:48;32.80;58.80
3770;DHT22;1900;48.890;9.190;2023-09-19T13:36:14;32.90;58.70
3770;DHT22;1900;48.890;9.190;2023-09-19T13:38:41;32.90;59.00
3770;DHT22;1900;48.890;9.190;2023-09-19T13:41:09;32.90;58.70
3770;DHT22;1900;48.890;9.190;2023-09-19T13:43:36;32.90;58.30
3770;DHT22;1900;48.890;9.190;2023-09-19T13:46:03;32.90;58.20
3770;DHT22;1900;48.890;9.190;2023-09-19T13:48:29;32.80;57.80
3770;DHT22;1900;48.890;9.190;2023-09-19T13:50:56;32.70;57.40
3770;DHT22;1900;48.890;9.190;2023-09-19T13:53:22;32.60;57.70
3770;DHT22;1900;48.890;9.190;2023-09-19T13:55:48;32.50;57.00
3770;DHT22;1900;48.890;9.190;2023-09-19T13:58:16;32.40;56.90
3770;DHT22;1900;48.890;9.190;2023-09-19T14:00:42;32.20;56.70
3770;DHT22;1900;48.890;9.190;2023-09-19T14:03:08;32.10;56.50
3770;DHT22;1900;48.890;9.190;2023-09-19T14:05:35;31.90;56.30
3770;DHT22;1900;48.890;9.190;2023-09-19T14:08:01;31.80;56.30
3770;DHT22;1900;48.890;9.190;2023-09-19T14:10:28;31.70;56.20
3770;DHT22;1900;48.890;9.190;2023-09-19T14:12:57;31.60;56.20
3770;DHT22;1900;48.890;9.190;2023-09-19T14:15:26;31.50;56.20
3770;DHT22;1900;48.890;9.190;2023-09-19T14:17:59;31.40;56.20
3770;DHT22;1900;48.890;9.190;2023-09-19T14:20:26;31.20;56.00
3770;DHT22;1900;48.890;9.190;2023-09-19T14:22:53;31.10;56.00
3770;DHT22;1900;48.890;9.190;2023-09-19T14:25:19;31.00;55.80
3770;DHT22;1900;48.890;9.190;2023-09-19T14:27:46;30.90;55.60
3770;DHT22;1900;48.890;9.190;2023-09-19T14:30:13;30.80;55.50
3770;DHT22;1900;48.890;9.190;2023-09-19T14:32:39;30.70;55.50
3770;DHT22;1900;48.890;9.190;2023-09-19T14:35:06;30.60;55.30
3770;DHT22;1900;48.890;9.190;2023-09-19T14:37:32;30.50;55.40
3770;DHT22;1900;48.890;9.190;2023-09-19T14:39:57;30.40;55.40
3770;DHT22;1900;48.890;9.190;2023-09-19T14:42:23;30.40;55.50
3770;DHT22;1900;48.890;9.190;2023-09-19T14:44:49;30.30;55.50
3770;DHT22;1900;48.890;9.190;2023-09-19T14:47:15;30.20;55.40
3770;DHT22;1900;48.890;9.190;2023-09-19T14:49:42;30.20;55.40
3770;DHT22;1900;48.890;9.190;2023-09-19T14:52:09;30.20;55.70
3770;DHT22;1900;48.890;9.190;2023-09-19T14:54:36;30.10;55.90
3770;DHT22;1900;48.890;9.190;2023-09-19T14:57:04;30.20;56.10
3770;DHT22;1900;48.890;9.190;2023-09-19T14:59:33;30.20;56.20
3770;DHT22;1900;48.890;9.190;2023-09-19T15:02:03;30.20;56.30
3770;DHT22;1900;48.890;9.190;2023-09-19T15:04:29;30.30;56.40
3770;DHT22;1900;48.890;9.190;2023-09-19T15:06:55;30.30;56.30
3770;DHT22;1900;48.890;9.190;2023-09-19T15:09:24;30.30;56.20
3770;DHT22;1900;48.890;9.190;2023-09-19T15:11:55;30.40;56.30
3770;DHT22;1900;48.890;9.190;2023-09-19T15:14:21;30.40;55.60
3770;DHT22;1900;48.890;9.190;2023-09-19T15:16:48;30.40;55.60
3770;DHT22;1900;48.890;9.190;2023-09-19T15:19:14;30.40;55.70
3770;DHT22;1900;48.890;9.190;2023-09-19T15:21:41;30.40;55.70
3770;DHT22;1900;48.890;9.190;2023-09-19T15:24:07;30.40;55.80
3770;DHT22;1900;48.890;9.190;2023-09-19T15:26:36;30.40;55.90
3770;DHT22;1900;48.890;9.190;2023-09-19T15:29:07;30.40;56.00
3770;DHT22;1900;48.890;9.190;2023-09-19T15:31:35;30.40;55.60
3770;DHT22;1900;48.890;9.190;2023-09-19T15:34:04;30.40;55.40
3770;DHT22;1900;48.890;9.190;2023-09-19T15:36:31;30.30;55.20
3770;DHT22;1900;48.890;9.190;2023-09-19T15:43:59;30.10;54.80
3770;DHT22;1900;48.890;9.190;2023-09-19T15:46:27;30.00;54.60
3770;DHT22;1900;48.890;9.190;2023-09-19T15:48:53;29.90;54.50
3770;DHT22;1900;48.890;9.190;2023-09-19T15:51:19;29.90;54.50
3770;DHT22;1900;48.890;9.190;2023-09-19T15:53:46;29.80;54.40
3770;DHT22;1900;48.890;9.190;2023-09-19T15:56:13;29.70;54.30
3770;DHT22;1900;48.890;9.190;2023-09-19T15:58:40;29.60;54.20
3770;DHT22;1900;48.890;9.190;2023-09-19T16:01:07;29.60;54.20
3770;DHT22;1900;48.890;9.190;2023-09-19T16:03:40;29.50;54.20
3770;DHT22;1900;48.890;9.190;2023-09-19T16:06:13;29.40;54.10
3770;DHT22;1900;48.890;9.190;2023-09-19T16:08:49;29.30;54.00
3770;DHT22;1900;48.890;9.190;2023-09-19T16:11:16;29.30;54.00
3770;DHT22;1900;48.890;9.190;2023-09-19T16:13:43;29.20;54.10
3770;DHT22;1900;48.890;9.190;2023-09-19T16:16:11;29.10;54.00
3770;DHT22;1900;48.890;9.190;2023-09-19T16:18:55;29.10;53.90
3770;DHT22;1900;48.890;9.190;2023-09-19T16:21:24;29.00;53.90
3770;DHT22;1900;48.890;9.190;2023-09-19T16:23:50;28.90;53.90
3770;DHT22;1900;48.890;9.190;2023-09-19T16:26:17;28.90;53.90
3770;DHT22;1900;48.890;9.190;2023-09-19T16:28:49;28.80;53.90
3770;DHT22;1900;48.890;9.190;2023-09-19T16:31:15;28.70;53.80
3770;DHT22;1900;48.890;9.190;2023-09-19T16:33:45;28.70;53.90
3770;DHT22;1900;48.890;9.190;2023-09-19T16:36:18;28.60;53.70
3770;DHT22;1900;48.890;9.190;2023-09-19T16:38:46;28.60;53.80
3770;DHT22;1900;48.890;9.190;2023-09-19T16:41:12;28.50;53.80
3770;DHT22;1900;48.890;9.190;2023-09-19T16:43:38;28.50;53.80
3770;DHT22;1900;48.890;9.190;2023-09-19T16:46:06;28.40;53.70
3770;DHT22;1900;48.890;9.190;2023-09-19T16:48:34;28.40;53.70
3770;DHT22;1900;48.890;9.190;2023-09-19T16:51:06;28.30;53.70
3770;DHT22;1900;48.890;9.190;2023-09-19T16:53:35;28.30;53.60
3770;DHT22;1900;48.890;9.190;2023-09-19T16:56:05;28.20;53.60
3770;DHT22;1900;48.890;9.190;2023-09-19T16:58:35;28.20;53.60
3770;DHT22;1900;48.890;9.190;2023-09-19T17:01:01;28.10;53.60
3770;DHT22;1900;48.890;9.190;2023-09-19T17:03:28;28.10;53.60
3770;DHT22;1900;48.890;9.190;2023-09-19T17:06:00;28.10;53.60
3770;DHT22;1900;48.890;9.190;2023-09-19T17:08:27;28.00;53.50